sensor_id;sensor_type;location;lat;lon;timestamp;pressure;altitude;pressure_sealevel;temperature
48894;BMP280;34710;35.798;139.446;2023-01-20T00:01:46;100646.53;;;18.68
48894;BMP280;34710;35.798;139.446;2023-01-20T00:04:15;100642.44;;;18.50
48894;BMP280;34710;35.798;139.446;2023-01-20T00:06:44;100648.29;;;18.10
48894;BMP280;34710;35.798;139.446;2023-01-20T00:09:15;100651.47;;;17.71
48894;BMP280;34710;35.798;139.446;2023-01-20T00:11:45;100642.32;;;17.04
48894;BMP280;34710;35.798;139.446;2023-01-20T00:14:15;100635.07;;;17.79
48894;BMP280;34710;35.798;139.446;2023-01-20T00:16:44;100632.02;;;18.28
48894;BMP280;34710;35.798;139.446;2023-01-20T00:19:14;100628.78;;;18.96
48894;BMP280;34710;35.798;139.446;2023-01-20T00:21:43;100624.59;;;19.53
48894;BMP280;34710;35.798;139.446;2023-01-20T00:24:13;100624.76;;;19.30
48894;BMP280;34710;35.798;139.446;2023-01-20T00:26:43;100625.69;;;19.49
48894;BMP280;34710;35.798;139.446;2023-01-20T00:29:13;100624.25;;;19.65
48894;BMP280;34710;35.798;139.446;2023-01-20T00:31:42;100623.23;;;19.76
48894;BMP280;34710;35.798;139.446;2023-01-20T00:34:10;100625.30;;;19.44
48894;BMP280;34710;35.798;139.446;2023-01-20T00:36:40;100618.12;;;20.28
48894;BMP280;34710;35.798;139.446;2023-01-20T00:39:09;100623.01;;;20.48
48894;BMP280;34710;35.798;139.446;2023-01-20T00:41:40;100620.50;;;20.91
48894;BMP280;34710;35.798;139.446;2023-01-20T00:44:09;100612.97;;;21.56
48894;BMP280;34710;35.798;139.446;2023-01-20T00:46:38;100608.13;;;21.89
48894;BMP280;34710;35.798;139.446;2023-01-20T00:49:08;100604.72;;;22.39
48894;BMP280;34710;35.798;139.446;2023-01-20T00:51:37;100598.51;;;22.68
48894;BMP280;34710;35.798;139.446;2023-01-20T00:54:07;100593.02;;;23.53
48894;BMP280;34710;35.798;139.446;2023-01-20T00:56:36;100579.09;;;24.08
48894;BMP280;34710;35.798;139.446;2023-01-20T00:59:07;100577.25;;;22.79
48894;BMP280;34710;35.798;139.446;2023-01-20T01:01:37;100581.19;;;22.49
48894;BMP280;34710;35.798;139.446;2023-01-20T01:04:06;100578.62;;;23.15
48894;BMP280;34710;35.798;139.446;2023-01-20T01:06:35;100577.58;;;20.62
48894;BMP280;34710;35.798;139.446;2023-01-20T01:09:04;100575.73;;;21.40
48894;BMP280;34710;35.798;139.446;2023-01-20T01:11:33;100568.12;;;23.30
48894;BMP280;34710;35.798;139.446;2023-01-20T01:14:02;100562.19;;;24.20
48894;BMP280;34710;35.798;139.446;2023-01-20T01:16:31;100566.74;;;24.94
48894;BMP280;34710;35.798;139.446;2023-01-20T01:19:01;100552.85;;;25.30
48894;BMP280;34710;35.798;139.446;2023-01-20T01:21:31;100535.38;;;25.42
48894;BMP280;34710;35.798;139.446;2023-01-20T01:24:00;100534.55;;;24.93
48894;BMP280;34710;35.798;139.446;2023-01-20T01:26:29;100520.37;;;25.75
48894;BMP280;34710;35.798;139.446;2023-01-20T01:28:57;100523.34;;;21.78
48894;BMP280;34710;35.798;139.446;2023-01-20T01:31:27;100525.94;;;20.17
48894;BMP280;34710;35.798;139.446;2023-01-20T01:33:57;100526.58;;;22.51
48894;BMP280;34710;35.798;139.446;2023-01-20T01:36:26;100520.38;;;24.68
48894;BMP280;34710;35.798;139.446;2023-01-20T01:38:56;100509.28;;;25.87
48894;BMP280;34710;35.798;139.446;2023-01-20T01:41:25;100502.80;;;25.64
48894;BMP280;34710;35.798;139.446;2023-01-20T01:44:06;100490.65;;;23.62
48894;BMP280;34710;35.798;139.446;2023-01-20T01:46:36;100477.28;;;24.39
48894;BMP280;34710;35.798;139.446;2023-01-20T01:49:08;100469.20;;;24.22
48894;BMP280;34710;35.798;139.446;2023-01-20T01:51:42;100458.89;;;22.92
48894;BMP280;34710;35.798;139.446;2023-01-20T01:54:17;100448.85;;;24.92
48894;BMP280;34710;35.798;139.446;2023-01-20T01:56:48;100446.96;;;21.81
48894;BMP280;34710;35.798;139.446;2023-01-20T01:59:19;100432.45;;;23.60
48894;BMP280;34710;35.798;139.446;2023-01-20T02:01:50;100433.95;;;24.71
48894;BMP280;34710;35.798;139.446;2023-01-20T02:04:22;100438.82;;;22.18
48894;BMP280;34710;35.798;139.446;2023-01-20T02:06:53;100429.21;;;21.30
48894;BMP280;34710;35.798;139.446;2023-01-20T02:09:25;100416.73;;;21.01
48894;BMP280;34710;35.798;139.446;2023-01-20T02:11:56;100402.92;;;23.42
48894;BMP280;34710;35.798;139.446;2023-01-20T02:14:32;100402.61;;;22.00
48894;BMP280;34710;35.798;139.446;2023-01-20T02:17:07;100391.11;;;22.34
48894;BMP280;34710;35.798;139.446;2023-01-20T02:20:50;100384.33;;;24.64
48894;BMP280;34710;35.798;139.446;2023-01-20T02:23:48;100386.35;;;23.34
48894;BMP280;34710;35.798;139.446;2023-01-20T02:26:40;100372.82;;;23.00
48894;BMP280;34710;35.798;139.446;2023-01-20T02:30:44;100364.63;;;24.70
48894;BMP280;34710;35.798;139.446;2023-01-20T02:33:25;100351.43;;;23.59
48894;BMP280;34710;35.798;139.446;2023-01-20T02:36:01;100335.06;;;23.78
48894;BMP280;34710;35.798;139.446;2023-01-20T02:38:38;100331.42;;;23.33
48894;BMP280;34710;35.798;139.446;2023-01-20T02:41:16;100332.09;;;20.79
48894;BMP280;34710;35.798;139.446;2023-01-20T02:43:52;100320.37;;;20.19
48894;BMP280;34710;35.798;139.446;2023-01-20T02:46:29;100312.35;;;21.31
48894;BMP280;34710;35.798;139.446;2023-01-20T02:49:09;100299.34;;;22.05
48894;BMP280;34710;35.798;139.446;2023-01-20T02:51:44;100286.26;;;22.41
48894;BMP280;34710;35.798;139.446;2023-01-20T02:54:19;100283.63;;;20.75
48894;BMP280;34710;35.798;139.446;2023-01-20T02:56:50;100267.96;;;22.72
48894;BMP280;34710;35.798;139.446;2023-01-20T02:59:25;100260.94;;;21.70
48894;BMP280;34710;35.798;139.446;2023-01-20T03:01:59;100254.90;;;21.02
48894;BMP280;34710;35.798;139.446;2023-01-20T03:04:34;100244.38;;;20.28
48894;BMP280;34710;35.798;139.446;2023-01-20T03:07:05;100233.20;;;22.36
48894;BMP280;34710;35.798;139.446;2023-01-20T03:09:37;100220.10;;;19.83
48894;BMP280;34710;35.798;139.446;2023-01-20T03:12:14;100213.65;;;20.19
48894;BMP280;34710;35.798;139.446;2023-01-20T03:14:45;100204.44;;;21.09
48894;BMP280;34710;35.798;139.446;2023-01-20T03:17:14;100200.52;;;21.78
48894;BMP280;34710;35.798;139.446;2023-01-20T03:19:44;100190.98;;;22.86
48894;BMP280;34710;35.798;139.446;2023-01-20T03:22:13;100185.58;;;21.17
48894;BMP280;34710;35.798;139.446;2023-01-20T03:24:44;100178.71;;;20.69
48894;BMP280;34710;35.798;139.446;2023-01-20T03:27:15;100165.95;;;18.22
48894;BMP280;34710;35.798;139.446;2023-01-20T03:29:44;100147.15;;;22.14
48894;BMP280;34710;35.798;139.446;2023-01-20T03:32:14;100136.48;;;23.08
48894;BMP280;34710;35.798;139.446;2023-01-20T03:34:44;100133.23;;;18.76
48894;BMP280;34710;35.798;139.446;2023-01-20T03:37:13;100127.62;;;22.05
48894;BMP280;34710;35.798;139.446;2023-01-20T03:39:43;100126.57;;;23.22
48894;BMP280;34710;35.798;139.446;2023-01-20T03:42:15;100119.20;;;22.29
48894;BMP280;34710;35.798;139.446;2023-01-20T03:44:58;100113.71;;;21.57
48894;BMP280;34710;35.798;139.446;2023-01-20T03:47:43;100106.57;;;20.80
48894;BMP280;34710;35.798;139.446;2023-01-20T03:50:24;100101.80;;;24.24
48894;BMP280;34710;35.798;139.446;2023-01-20T03:53:03;100096.51;;;22.49
48894;BMP280;34710;35.798;139.446;2023-01-20T03:55:39;100094.24;;;22.48
48894;BMP280;34710;35.798;139.446;2023-01-20T03:58:11;100092.64;;;23.71
48894;BMP280;34710;35.798;139.446;2023-01-20T04:00:45;100091.25;;;21.89
48894;BMP280;34710;35.798;139.446;2023-01-20T04:03:19;100086.06;;;19.34
48894;BMP280;34710;35.798;139.446;2023-01-20T04:05:50;100085.16;;;18.91
48894;BMP280;34710;35.798;139.446;2023-01-20T04:08:21;100084.51;;;18.85
48894;BMP280;34710;35.798;139.446;2023-01-20T04:10:53;100080.70;;;18.85
48894;BMP280;34710;35.798;139.446;2023-01-20T04:13:23;100063.66;;;21.55
48894;BMP280;34710;35.798;139.446;2023-01-20T04:15:53;100061.58;;;22.82
48894;BMP280;34710;35.798;139.446;2023-01-20T04:18:23;100069.92;;;18.78
48894;BMP280;34710;35.798;139.446;2023-01-20T04:20:55;100060.06;;;21.19
48894;BMP280;34710;35.798;139.446;2023-01-20T04:23:30;100057.06;;;21.34
48894;BMP280;34710;35.798;139.446;2023-01-20T04:26:00;100054.65;;;21.36
48894;BMP280;34710;35.798;139.446;2023-01-20T04:28:29;100050.81;;;22.58
48894;BMP280;34710;35.798;139.446;2023-01-20T04:30:59;100055.20;;;22.22
48894;BMP280;34710;35.798;139.446;2023-01-20T04:33:28;100056.06;;;23.08
48894;BMP280;34710;35.798;139.446;2023-01-20T04:35:58;100059.69;;;20.59
48894;BMP280;34710;35.798;139.446;2023-01-20T04:38:27;100066.90;;;18.10
48894;BMP280;34710;35.798;139.446;2023-01-20T04:40:56;100066.58;;;18.08
48894;BMP280;34710;35.798;139.446;2023-01-20T04:43:26;100065.13;;;16.18
48894;BMP280;34710;35.798;139.446;2023-01-20T04:45:54;100060.19;;;16.16
48894;BMP280;34710;35.798;139.446;2023-01-20T04:48:24;100050.48;;;17.92
48894;BMP280;34710;35.798;139.446;2023-01-20T04:50:53;100045.40;;;18.60
48894;BMP280;34710;35.798;139.446;2023-01-20T04:53:23;100042.48;;;21.12
48894;BMP280;34710;35.798;139.446;2023-01-20T04:55:52;100042.79;;;17.93
48894;BMP280;34710;35.798;139.446;2023-01-20T04:58:21;100035.44;;;20.15
48894;BMP280;34710;35.798;139.446;2023-01-20T05:00:51;100044.68;;;17.92
48894;BMP280;34710;35.798;139.446;2023-01-20T05:03:20;100045.51;;;17.80
48894;BMP280;34710;35.798;139.446;2023-01-20T05:05:54;100048.66;;;15.02
48894;BMP280;34710;35.798;139.446;2023-01-20T05:08:23;100043.12;;;14.24
48894;BMP280;34710;35.798;139.446;2023-01-20T05:10:52;100037.16;;;15.18
48894;BMP280;34710;35.798;139.446;2023-01-20T05:13:22;100038.46;;;14.46
48894;BMP280;34710;35.798;139.446;2023-01-20T05:15:50;100026.11;;;15.83
48894;BMP280;34710;35.798;139.446;2023-01-20T05:18:20;100019.26;;;15.89
48894;BMP280;34710;35.798;139.446;2023-01-20T05:20:49;100016.26;;;15.65
48894;BMP280;34710;35.798;139.446;2023-01-20T05:23:18;100016.34;;;15.96
48894;BMP280;34710;35.798;139.446;2023-01-20T05:25:50;100012.00;;;16.89
48894;BMP280;34710;35.798;139.446;2023-01-20T05:28:20;100011.02;;;16.68
48894;BMP280;34710;35.798;139.446;2023-01-20T05:30:50;100009.28;;;16.42
48894;BMP280;34710;35.798;139.446;2023-01-20T05:33:19;100018.00;;;15.61
48894;BMP280;34710;35.798;139.446;2023-01-20T05:35:48;100016.93;;;13.29
48894;BMP280;34710;35.798;139.446;2023-01-20T05:38:17;100010.94;;;13.02
48894;BMP280;34710;35.798;139.446;2023-01-20T05:40:47;100014.56;;;13.24
48894;BMP280;34710;35.798;139.446;2023-01-20T05:43:16;100004.26;;;14.48
48894;BMP280;34710;35.798;139.446;2023-01-20T05:45:46;100006.83;;;14.47
48894;BMP280;34710;35.798;139.446;2023-01-20T05:48:15;100007.71;;;13.91
48894;BMP280;34710;35.798;139.446;2023-01-20T05:50:44;100007.13;;;13.48
48894;BMP280;34710;35.798;139.446;2023-01-20T05:53:14;100005.59;;;13.92
48894;BMP280;34710;35.798;139.446;2023-01-20T05:55:45;100000.24;;;14.70
48894;BMP280;34710;35.798;139.446;2023-01-20T05:58:15;99993.92;;;14.81
48894;BMP280;34710;35.798;139.446;2023-01-20T06:00:44;99990.01;;;15.18
48894;BMP280;34710;35.798;139.446;2023-01-20T06:03:13;99981.40;;;15.45
48894;BMP280;34710;35.798;139.446;2023-01-20T06:05:43;99983.18;;;16.45
48894;BMP280;34710;35.798;139.446;2023-01-20T06:08:13;99986.07;;;16.07
48894;BMP280;34710;35.798;139.446;2023-01-20T06:10:42;99986.33;;;14.57
48894;BMP280;34710;35.798;139.446;2023-01-20T06:13:12;99982.15;;;15.52
48894;BMP280;34710;35.798;139.446;2023-01-20T06:15:42;99984.53;;;15.57
48894;BMP280;34710;35.798;139.446;2023-01-20T06:18:11;99982.77;;;13.85
48894;BMP280;34710;35.798;139.446;2023-01-20T06:20:40;99985.13;;;14.55
48894;BMP280;34710;35.798;139.446;2023-01-20T06:23:10;99987.65;;;15.81
48894;BMP280;34710;35.798;139.446;2023-01-20T06:25:39;99987.25;;;15.55
48894;BMP280;34710;35.798;139.446;2023-01-20T06:28:08;99989.70;;;15.98
48894;BMP280;34710;35.798;139.446;2023-01-20T06:30:37;99984.10;;;15.84
48894;BMP280;34710;35.798;139.446;2023-01-20T06:33:06;99982.35;;;14.95
48894;BMP280;34710;35.798;139.446;2023-01-20T06:35:36;99975.65;;;16.06
48894;BMP280;34710;35.798;139.446;2023-01-20T06:38:05;99981.63;;;16.50
48894;BMP280;34710;35.798;139.446;2023-01-20T06:40:34;99985.07;;;15.63
48894;BMP280;34710;35.798;139.446;2023-01-20T06:43:03;99985.84;;;14.49
48894;BMP280;34710;35.798;139.446;2023-01-20T06:45:33;99982.99;;;15.18
48894;BMP280;34710;35.798;139.446;2023-01-20T06:48:02;99977.05;;;15.49
48894;BMP280;34710;35.798;139.446;2023-01-20T06:50:31;99984.19;;;14.12
48894;BMP280;34710;35.798;139.446;2023-01-20T06:53:00;99980.45;;;15.26
48894;BMP280;34710;35.798;139.446;2023-01-20T06:55:29;99984.70;;;14.09
48894;BMP280;34710;35.798;139.446;2023-01-20T06:57:59;99985.55;;;14.49
48894;BMP280;34710;35.798;139.446;2023-01-20T07:00:28;99981.57;;;15.63
48894;BMP280;34710;35.798;139.446;2023-01-20T07:02:57;99978.01;;;13.23
48894;BMP280;34710;35.798;139.446;2023-01-20T07:05:27;99975.34;;;13.65
48894;BMP280;34710;35.798;139.446;2023-01-20T07:07:56;99975.48;;;13.95
48894;BMP280;34710;35.798;139.446;2023-01-20T07:10:26;99974.75;;;12.61
48894;BMP280;34710;35.798;139.446;2023-01-20T07:12:55;99970.15;;;12.65
48894;BMP280;34710;35.798;139.446;2023-01-20T07:15:24;99972.49;;;11.64
48894;BMP280;34710;35.798;139.446;2023-01-20T07:17:54;99984.36;;;12.42
48894;BMP280;34710;35.798;139.446;2023-01-20T07:20:23;99988.55;;;12.39
48894;BMP280;34710;35.798;139.446;2023-01-20T07:22:53;99991.76;;;12.77
48894;BMP280;34710;35.798;139.446;2023-01-20T07:25:22;100002.48;;;13.66
48894;BMP280;34710;35.798;139.446;2023-01-20T07:27:51;99999.71;;;14.14
48894;BMP280;34710;35.798;139.446;2023-01-20T07:30:20;100001.83;;;14.28
48894;BMP280;34710;35.798;139.446;2023-01-20T07:32:49;99998.68;;;14.48
48894;BMP280;34710;35.798;139.446;2023-01-20T07:35:19;99995.84;;;14.89
48894;BMP280;34710;35.798;139.446;2023-01-20T07:37:48;99997.43;;;13.68
48894;BMP280;34710;35.798;139.446;2023-01-20T07:40:18;99999.84;;;13.44
48894;BMP280;34710;35.798;139.446;2023-01-20T07:42:47;100006.89;;;11.44
48894;BMP280;34710;35.798;139.446;2023-01-20T07:45:17;100002.96;;;11.64
48894;BMP280;34710;35.798;139.446;2023-01-20T07:47:47;99999.03;;;13.18
48894;BMP280;34710;35.798;139.446;2023-01-20T07:50:17;100001.90;;;12.35
48894;BMP280;34710;35.798;139.446;2023-01-20T07:52:47;100003.74;;;11.57
48894;BMP280;34710;35.798;139.446;2023-01-20T07:55:17;100015.21;;;10.51
48894;BMP280;34710;35.798;139.446;2023-01-20T07:57:46;100009.72;;;11.83
48894;BMP280;34710;35.798;139.446;2023-01-20T08:00:18;100017.99;;;11.14
48894;BMP280;34710;35.798;139.446;2023-01-20T08:02:48;100014.14;;;12.98
48894;BMP280;34710;35.798;139.446;2023-01-20T08:05:18;100022.82;;;13.46
48894;BMP280;34710;35.798;139.446;2023-01-20T08:07:50;100028.07;;;14.06
48894;BMP280;34710;35.798;139.446;2023-01-20T08:10:20;100034.78;;;14.70
48894;BMP280;34710;35.798;139.446;2023-01-20T08:12:49;100036.22;;;15.16
48894;BMP280;34710;35.798;139.446;2023-01-20T08:15:19;100029.26;;;15.06
48894;BMP280;34710;35.798;139.446;2023-01-20T08:17:53;100028.92;;;15.01
48894;BMP280;34710;35.798;139.446;2023-01-20T08:20:23;100038.31;;;14.78
48894;BMP280;34710;35.798;139.446;2023-01-20T08:22:52;100038.27;;;14.10
48894;BMP280;34710;35.798;139.446;2023-01-20T08:25:22;100034.37;;;14.57
48894;BMP280;34710;35.798;139.446;2023-01-20T08:27:51;100036.72;;;14.65
48894;BMP280;34710;35.798;139.446;2023-01-20T08:30:21;100040.25;;;14.77
48894;BMP280;34710;35.798;139.446;2023-01-20T08:32:49;100047.48;;;14.85
48894;BMP280;34710;35.798;139.446;2023-01-20T08:35:19;100046.05;;;14.89
48894;BMP280;34710;35.798;139.446;2023-01-20T08:37:49;100048.36;;;14.92
48894;BMP280;34710;35.798;139.446;2023-01-20T08:40:19;100054.42;;;14.84
48894;BMP280;34710;35.798;139.446;2023-01-20T08:42:48;100051.48;;;14.95
48894;BMP280;34710;35.798;139.446;2023-01-20T08:45:17;100047.34;;;14.97
48894;BMP280;34710;35.798;139.446;2023-01-20T08:47:45;100044.41;;;14.85
48894;BMP280;34710;35.798;139.446;2023-01-20T08:50:15;100045.95;;;14.84
48894;BMP280;34710;35.798;139.446;2023-01-20T08:52:45;100052.68;;;14.68
48894;BMP280;34710;35.798;139.446;2023-01-20T08:55:14;100052.58;;;14.56
48894;BMP280;34710;35.798;139.446;2023-01-20T08:57:44;100054.51;;;14.39
48894;BMP280;34710;35.798;139.446;2023-01-20T09:00:14;100053.80;;;14.25
48894;BMP280;34710;35.798;139.446;2023-01-20T09:02:44;100055.20;;;14.08
48894;BMP280;34710;35.798;139.446;2023-01-20T09:05:14;100067.61;;;14.29
48894;BMP280;34710;35.798;139.446;2023-01-20T09:07:42;100065.47;;;14.24
48894;BMP280;34710;35.798;139.446;2023-01-20T09:10:13;100061.80;;;14.29
48894;BMP280;34710;35.798;139.446;2023-01-20T09:12:42;100068.51;;;13.88
48894;BMP280;34710;35.798;139.446;2023-01-20T09:15:12;100067.58;;;13.99
48894;BMP280;34710;35.798;139.446;2023-01-20T09:17:42;100066.08;;;14.07
48894;BMP280;34710;35.798;139.446;2023-01-20T09:20:12;100063.53;;;13.87
48894;BMP280;34710;35.798;139.446;2023-01-20T09:22:41;100063.64;;;13.84
48894;BMP280;34710;35.798;139.446;2023-01-20T09:25:11;100064.72;;;13.53
48894;BMP280;34710;35.798;139.446;2023-01-20T09:27:40;100068.46;;;13.45
48894;BMP280;34710;35.798;139.446;2023-01-20T09:30:10;100072.40;;;13.42
48894;BMP280;34710;35.798;139.446;2023-01-20T09:32:40;100073.03;;;13.06
48894;BMP280;34710;35.798;139.446;2023-01-20T09:35:09;100071.62;;;12.98
48894;BMP280;34710;35.798;139.446;2023-01-20T09:37:39;100070.27;;;12.84
48894;BMP280;34710;35.798;139.446;2023-01-20T09:40:12;100063.52;;;12.62
48894;BMP280;34710;35.798;139.446;2023-01-20T09:42:55;100051.14;;;12.36
48894;BMP280;34710;35.798;139.446;2023-01-20T09:45:35;100052.32;;;12.59
48894;BMP280;34710;35.798;139.446;2023-01-20T09:48:12;100055.12;;;12.45
48894;BMP280;34710;35.798;139.446;2023-01-20T09:50:51;100053.68;;;11.97
48894;BMP280;34710;35.798;139.446;2023-01-20T09:53:35;100064.37;;;11.58
48894;BMP280;34710;35.798;139.446;2023-01-20T09:56:13;100070.80;;;11.65
48894;BMP280;34710;35.798;139.446;2023-01-20T09:58:49;100068.70;;;12.00
48894;BMP280;34710;35.798;139.446;2023-01-20T10:01:26;100070.93;;;11.82
48894;BMP280;34710;35.798;139.446;2023-01-20T10:04:02;100070.31;;;11.80
48894;BMP280;34710;35.798;139.446;2023-01-20T10:06:38;100067.89;;;11.85
48894;BMP280;34710;35.798;139.446;2023-01-20T10:09:16;100068.02;;;11.96
48894;BMP280;34710;35.798;139.446;2023-01-20T10:11:48;100064.38;;;11.27
48894;BMP280;34710;35.798;139.446;2023-01-20T10:14:24;100066.53;;;11.35
48894;BMP280;34710;35.798;139.446;2023-01-20T10:17:00;100067.63;;;11.37
48894;BMP280;34710;35.798;139.446;2023-01-20T10:19:37;100064.82;;;11.98
48894;BMP280;34710;35.798;139.446;2023-01-20T10:22:15;100066.17;;;12.17
48894;BMP280;34710;35.798;139.446;2023-01-20T10:24:49;100068.93;;;11.44
48894;BMP280;34710;35.798;139.446;2023-01-20T10:27:21;100087.83;;;11.20
48894;BMP280;34710;35.798;139.446;2023-01-20T10:29:55;100081.20;;;11.03
48894;BMP280;34710;35.798;139.446;2023-01-20T10:32:29;100088.49;;;10.64
48894;BMP280;34710;35.798;139.446;2023-01-20T10:35:06;100091.46;;;11.07
48894;BMP280;34710;35.798;139.446;2023-01-20T10:37:38;100101.09;;;11.36
48894;BMP280;34710;35.798;139.446;2023-01-20T10:40:18;100087.11;;;11.23
48894;BMP280;34710;35.798;139.446;2023-01-20T10:42:56;100087.46;;;11.02
48894;BMP280;34710;35.798;139.446;2023-01-20T10:45:32;100083.77;;;11.48
48894;BMP280;34710;35.798;139.446;2023-01-20T10:48:13;100104.55;;;10.79
48894;BMP280;34710;35.798;139.446;2023-01-20T10:50:54;100105.16;;;10.63
48894;BMP280;34710;35.798;139.446;2023-01-20T10:53:39;100104.19;;;11.21
48894;BMP280;34710;35.798;139.446;2023-01-20T10:56:28;100107.47;;;11.45
48894;BMP280;34710;35.798;139.446;2023-01-20T10:59:07;100116.66;;;11.58
48894;BMP280;34710;35.798;139.446;2023-01-20T11:01:36;100123.32;;;11.41
48894;BMP280;34710;35.798;139.446;2023-01-20T11:04:08;100113.96;;;11.61
48894;BMP280;34710;35.798;139.446;2023-01-20T11:06:43;100121.62;;;11.65
48894;BMP280;34710;35.798;139.446;2023-01-20T11:09:21;100127.18;;;11.57
48894;BMP280;34710;35.798;139.446;2023-01-20T11:11:56;100123.01;;;11.66
48894;BMP280;34710;35.798;139.446;2023-01-20T11:14:28;100127.32;;;11.23
48894;BMP280;34710;35.798;139.446;2023-01-20T11:17:02;100140.67;;;11.74
48894;BMP280;34710;35.798;139.446;2023-01-20T11:20:05;100139.76;;;11.74
48894;BMP280;34710;35.798;139.446;2023-01-20T11:22:36;100146.78;;;11.74
48894;BMP280;34710;35.798;139.446;2023-01-20T11:25:11;100151.41;;;11.81
48894;BMP280;34710;35.798;139.446;2023-01-20T11:27:48;100159.19;;;11.24
48894;BMP280;34710;35.798;139.446;2023-01-20T11:30:26;100156.98;;;11.27
48894;BMP280;34710;35.798;139.446;2023-01-20T11:33:18;100147.64;;;11.31
48894;BMP280;34710;35.798;139.446;2023-01-20T11:36:06;100163.53;;;11.04
48894;BMP280;34710;35.798;139.446;2023-01-20T11:38:44;100164.92;;;10.50
48894;BMP280;34710;35.798;139.446;2023-01-20T11:41:23;100160.06;;;10.08
48894;BMP280;34710;35.798;139.446;2023-01-20T11:43:55;100161.51;;;10.56
48894;BMP280;34710;35.798;139.446;2023-01-20T11:46:28;100169.59;;;10.89
48894;BMP280;34710;35.798;139.446;2023-01-20T11:49:17;100191.35;;;11.16
48894;BMP280;34710;35.798;139.446;2023-01-20T11:51:50;100189.67;;;10.97
48894;BMP280;34710;35.798;139.446;2023-01-20T11:54:22;100189.25;;;10.86
48894;BMP280;34710;35.798;139.446;2023-01-20T11:56:54;100201.49;;;10.85
48894;BMP280;34710;35.798;139.446;2023-01-20T11:59:28;100202.16;;;11.18
48894;BMP280;34710;35.798;139.446;2023-01-20T12:02:01;100202.82;;;11.28
48894;BMP280;34710;35.798;139.446;2023-01-20T12:04:44;100210.41;;;11.17
48894;BMP280;34710;35.798;139.446;2023-01-20T12:07:21;100204.64;;;11.15
48894;BMP280;34710;35.798;139.446;2023-01-20T12:09:53;100207.37;;;11.03
48894;BMP280;34710;35.798;139.446;2023-01-20T12:12:28;100217.51;;;11.44
48894;BMP280;34710;35.798;139.446;2023-01-20T12:15:05;100210.82;;;11.23
48894;BMP280;34710;35.798;139.446;2023-01-20T12:17:45;100216.63;;;10.98
48894;BMP280;34710;35.798;139.446;2023-01-20T12:20:25;100221.81;;;11.10
48894;BMP280;34710;35.798;139.446;2023-01-20T12:23:06;100230.90;;;10.86
48894;BMP280;34710;35.798;139.446;2023-01-20T12:25:45;100228.84;;;10.40
48894;BMP280;34710;35.798;139.446;2023-01-20T12:28:20;100233.76;;;11.01
48894;BMP280;34710;35.798;139.446;2023-01-20T12:30:55;100233.21;;;11.22
48894;BMP280;34710;35.798;139.446;2023-01-20T12:33:28;100236.57;;;10.99
48894;BMP280;34710;35.798;139.446;2023-01-20T12:36:16;100237.40;;;11.11
48894;BMP280;34710;35.798;139.446;2023-01-20T12:39:03;100244.76;;;11.26
48894;BMP280;34710;35.798;139.446;2023-01-20T12:41:51;100252.60;;;11.42
48894;BMP280;34710;35.798;139.446;2023-01-20T12:44:29;100248.88;;;10.96
48894;BMP280;34710;35.798;139.446;2023-01-20T12:47:07;100250.05;;;11.08
48894;BMP280;34710;35.798;139.446;2023-01-20T12:49:54;100257.53;;;11.10
48894;BMP280;34710;35.798;139.446;2023-01-20T12:52:43;100264.60;;;11.49
48894;BMP280;34710;35.798;139.446;2023-01-20T12:55:23;100268.71;;;11.39
48894;BMP280;34710;35.798;139.446;2023-01-20T12:58:02;100264.70;;;12.09
48894;BMP280;34710;35.798;139.446;2023-01-20T13:00:45;100274.94;;;12.24
48894;BMP280;34710;35.798;139.446;2023-01-20T13:04:45;100278.50;;;11.87
48894;BMP280;34710;35.798;139.446;2023-01-20T13:07:34;100282.10;;;11.69
48894;BMP280;34710;35.798;139.446;2023-01-20T13:10:20;100286.13;;;12.08
48894;BMP280;34710;35.798;139.446;2023-01-20T13:12:59;100290.00;;;12.05
48894;BMP280;34710;35.798;139.446;2023-01-20T13:15:32;100297.71;;;12.17
48894;BMP280;34710;35.798;139.446;2023-01-20T13:18:25;100304.23;;;12.26
48894;BMP280;34710;35.798;139.446;2023-01-20T13:20:56;100304.00;;;11.98
48894;BMP280;34710;35.798;139.446;2023-01-20T13:23:29;100304.16;;;12.10
48894;BMP280;34710;35.798;139.446;2023-01-20T13:26:00;100311.66;;;12.07
48894;BMP280;34710;35.798;139.446;2023-01-20T13:28:33;100308.91;;;12.41
48894;BMP280;34710;35.798;139.446;2023-01-20T13:31:29;100306.35;;;11.91
48894;BMP280;34710;35.798;139.446;2023-01-20T13:34:32;100306.82;;;12.01
48894;BMP280;34710;35.798;139.446;2023-01-20T13:37:23;100313.76;;;11.61
48894;BMP280;34710;35.798;139.446;2023-01-20T13:39:54;100311.34;;;11.54
48894;BMP280;34710;35.798;139.446;2023-01-20T13:42:47;100316.94;;;11.28
48894;BMP280;34710;35.798;139.446;2023-01-20T13:45:21;100314.81;;;11.24
48894;BMP280;34710;35.798;139.446;2023-01-20T13:47:55;100312.08;;;11.34
48894;BMP280;34710;35.798;139.446;2023-01-20T13:50:28;100313.28;;;11.16
48894;BMP280;34710;35.798;139.446;2023-01-20T13:53:31;100314.38;;;10.66
48894;BMP280;34710;35.798;139.446;2023-01-20T13:56:01;100312.06;;;11.02
48894;BMP280;34710;35.798;139.446;2023-01-20T13:58:32;100314.99;;;10.56
48894;BMP280;34710;35.798;139.446;2023-01-20T14:01:03;100315.46;;;10.56
48894;BMP280;34710;35.798;139.446;2023-01-20T14:03:35;100310.93;;;10.69
48894;BMP280;34710;35.798;139.446;2023-01-20T14:06:17;100314.67;;;10.01
48894;BMP280;34710;35.798;139.446;2023-01-20T14:08:48;100314.57;;;9.84
48894;BMP280;34710;35.798;139.446;2023-01-20T14:11:20;100326.83;;;9.52